Address 0x1d038b43e4634a1246b50518b6bdc0ac5b7b62b2

 
Txn Hash Method
Block
From
To
Value [Txn Fee]
0xfbfe0f8913b2a1356dde082225ffb01fc53342821e21b32fb784db8ea8938374Execute Meta Tra...207156182021-10-28 20:23:586 mins ago0x1d038b43e4634a1246b50518b6bdc0ac5b7b62b2OUT 0x7adbced399630dd11a97f2e2dc206911167071ae0 MATIC0.005939538
0xa4207af08516564c2147a1c9a688d8e6b5de0bc65cd760255f794d3ecfe8a581Execute Meta Tra...207153432021-10-28 20:13:2217 mins ago0x1d038b43e4634a1246b50518b6bdc0ac5b7b62b2OUT 0x89aac1f5ccdd54dd8a09e5c858f19a665e4fa32b0 MATIC0.006425031416
0x46d7c8b8e468257e7140aee1123a722a7d1767bbcad92e5153225fa5777a22ecExecute Meta Tra...207150192021-10-28 20:02:1428 mins ago0x1d038b43e4634a1246b50518b6bdc0ac5b7b62b2OUT 0x7adbced399630dd11a97f2e2dc206911167071ae0 MATIC0.00591402
0x45024a9606025814b108246590c107cb6db42e67f1ce7fde09e6721737733d89Execute Meta Tra...207147412021-10-28 19:50:2940 mins ago0x1d038b43e4634a1246b50518b6bdc0ac5b7b62b2OUT 0x7adbced399630dd11a97f2e2dc206911167071ae0 MATIC0.0054003
0x665fe4cdc2aa91f38ed5e194dcaa75ec76be3fc3becb080bdfb5be977c110bcaExecute Meta Tra...207142712021-10-28 19:33:5256 mins ago0x1d038b43e4634a1246b50518b6bdc0ac5b7b62b2OUT 0x89aac1f5ccdd54dd8a09e5c858f19a665e4fa32b0 MATIC0.009636975
0xf23f4ed4750a6d8e1dbfb248434d99e5f66d015572604834dc14fbfe0c9eef74Execute Meta Tra...207139012021-10-28 19:20:321 hr 10 mins ago0x1d038b43e4634a1246b50518b6bdc0ac5b7b62b2OUT 0x1fdc5e69729eecf8e933c904e86faf7a8886f6610 MATIC0.0336221
0xe33c7330a3c0572644debab3d72d795eb378e8c32a556b170762291824c07569Execute Meta Tra...207136302021-10-28 19:07:341 hr 23 mins ago0x1d038b43e4634a1246b50518b6bdc0ac5b7b62b2OUT 0x89aac1f5ccdd54dd8a09e5c858f19a665e4fa32b0 MATIC0.009637515
0xbb58a6bee8f0373e6c0bea199d25b422edd5a6386e94bc7d4da35bb5906e0079Execute Meta Tra...207132642021-10-28 18:54:581 hr 35 mins ago0x1d038b43e4634a1246b50518b6bdc0ac5b7b62b2OUT 0x89aac1f5ccdd54dd8a09e5c858f19a665e4fa32b0 MATIC0.007067907
0xec8032b9776cec93776363a0e93ade2a81dd1e9877b132820a050869492a9d49Execute Meta Tra...207129822021-10-28 18:41:441 hr 49 mins ago0x1d038b43e4634a1246b50518b6bdc0ac5b7b62b2OUT 0x89aac1f5ccdd54dd8a09e5c858f19a665e4fa32b0 MATIC0.042831
0xa624eba5f848c5129a507c73a3fdf95e640c3208b073ff39092debbd5925bd0cExecute Meta Tra...207126552021-10-28 18:29:062 hrs 1 min ago0x1d038b43e4634a1246b50518b6bdc0ac5b7b62b2OUT 0x89aac1f5ccdd54dd8a09e5c858f19a665e4fa32b0 MATIC0.00642537
0x41b6c6021f32ca0f916ef17020ce849cd28c29d72aa4141a5e0485e26f863c5fExecute Meta Tra...207123852021-10-28 18:15:382 hrs 15 mins ago0x1d038b43e4634a1246b50518b6bdc0ac5b7b62b2OUT 0x89aac1f5ccdd54dd8a09e5c858f19a665e4fa32b0 MATIC0.00642429
0x2e8ffc959d17c087a54afb1490382bee8ac73bc1c32f6c7e23b9f09366d5420aExecute Meta Tra...207120082021-10-28 18:02:362 hrs 28 mins ago0x1d038b43e4634a1246b50518b6bdc0ac5b7b62b2OUT 0x89aac1f5ccdd54dd8a09e5c858f19a665e4fa32b0 MATIC0.01285002
0x4fccf5cfc29b88e7bb6a160601d51b7d3f83a8dfcf9fccf1a43031010e0a212bExecute Meta Tra...207113332021-10-28 17:34:492 hrs 56 mins ago0x1d038b43e4634a1246b50518b6bdc0ac5b7b62b2OUT 0x89aac1f5ccdd54dd8a09e5c858f19a665e4fa32b0 MATIC0.00642501
0xcd0af65593e9261d38d3026b5965e49fc9e57d27386906dd5364be59e8ab9082Execute Meta Tra...207109722021-10-28 17:22:233 hrs 8 mins ago0x1d038b43e4634a1246b50518b6bdc0ac5b7b62b2OUT 0x89aac1f5ccdd54dd8a09e5c858f19a665e4fa32b0 MATIC0.00642501
0x6aa12a5ac6ea107c8f3e3f504536f59182024c4b4c0b4ff8561d1e0a69f08c9cExecute Meta Tra...207102852021-10-28 16:58:493 hrs 32 mins ago0x1d038b43e4634a1246b50518b6bdc0ac5b7b62b2OUT 0xa102072a4c07f06ec3b4900fdc4c7b80b6c574290 MATIC0.00632384
0x4a50449840c3e81380e8d23cb461e5c52ffbb38be57f888f73264c3b3c130c7eExec Transaction207099402021-10-28 16:46:553 hrs 43 mins ago0x1d038b43e4634a1246b50518b6bdc0ac5b7b62b2OUT 0x4857ed4a64298af26f9f79bf2b62af9e96a2467d0 MATIC0.02606178
0x868e40fae313ad269a5102d0432f0590e71efc2aa0db34a065c3bc2bdd4d85c1Execute Meta Tra...207096862021-10-28 16:36:033 hrs 54 mins ago0x1d038b43e4634a1246b50518b6bdc0ac5b7b62b2OUT 0x7ceb23fd6bc0add59e62ac25578270cff1b9f6190 MATIC0.013591429
0xd1dd8b08168de04892eb5529e1bbebdd2ca7094022727a2a8ffe1b74b4df175cExecute Meta Tra...207092942021-10-28 16:21:554 hrs 8 mins ago0x1d038b43e4634a1246b50518b6bdc0ac5b7b62b2OUT 0x89aac1f5ccdd54dd8a09e5c858f19a665e4fa32b0 MATIC0.007496265
0x9f1fa4be5694a7d01df0be8b74e35da217f9d858f327844e7519a2077cceaba1Execute Meta Tra...207088782021-10-28 16:07:394 hrs 23 mins ago0x1d038b43e4634a1246b50518b6bdc0ac5b7b62b2OUT 0x89aac1f5ccdd54dd8a09e5c858f19a665e4fa32b0 MATIC0.01285074
0xac08dadeb219303d07ed13fa5a531727f8b6c1708f89a920f14c7a6cce054b86Execute Meta Tra...207086022021-10-28 15:55:594 hrs 34 mins ago0x1d038b43e4634a1246b50518b6bdc0ac5b7b62b2OUT 0x89aac1f5ccdd54dd8a09e5c858f19a665e4fa32b0 MATIC0.00642501
0x46b79ede8766d24c1d8ae40c517119078e72c26ee24793bf2176d316a8b6ad99Transfer207082522021-10-28 15:43:554 hrs 46 mins ago0x9e1980070743cb86bdbe3ae1d01018c6e97b0932 IN 0x1d038b43e4634a1246b50518b6bdc0ac5b7b62b27 MATIC0.00272937
0x78f7fae3086052020f6b8695e15a90a07c2ca5116087adbe8d9bdf880e821811Forward Meta Tx207082502021-10-28 15:43:514 hrs 46 mins ago0x1d038b43e4634a1246b50518b6bdc0ac5b7b62b2OUT 0x0babda04f62c549a09ef3313fe187f29c099ff3c0 MATIC0.030724908
0x0a02bec69d134570cb76fc51256dae83cbf2ced1059f92fb4d00bdf062aa001eForward Meta Tx207080132021-10-28 15:35:234 hrs 55 mins ago0x1d038b43e4634a1246b50518b6bdc0ac5b7b62b2OUT 0x0babda04f62c549a09ef3313fe187f29c099ff3c0 MATIC0.0472848
0x4e1c939b1ec504af7f4fd37160dc7cbd3ee010c546306bf9efb5adb2e83208180x41706c4e207075312021-10-28 15:18:515 hrs 11 mins ago0x1d038b43e4634a1246b50518b6bdc0ac5b7b62b2OUT 0x86c80a8aa58e0a4fa09a69624c31ab2a6cad56b80 MATIC0.01112744
0x7232b70aae9c136e73c16688ef967cbd5fe5542739f6037ffd3ae0152490a204Forward Meta Tx207072892021-10-28 15:10:285 hrs 20 mins ago0x1d038b43e4634a1246b50518b6bdc0ac5b7b62b2OUT 0x0babda04f62c549a09ef3313fe187f29c099ff3c0 MATIC0.04728
[ Download CSV Export 
Parent Txn Hash Block From To Value
Loading

Contract Name:
0 MATIC

Compiler Version
0

Optimization Enabled:
0 MATIC

Other Settings:
-NA-
Block Transaction Gas Used Reward
Age Block Fee Address BC Fee Address Voting Power Jailed Incoming
Block Uncle Number Difficulty Gas Used Reward
Loading
Loading
Make sure to use the "Vote Down" button for any spammy posts, and the "Vote Up" for interesting conversations.